sensor_id;sensor_type;location;lat;lon;timestamp;pressure;altitude;pressure_sealevel;temperature;humidity
48404;BME280;34202;52.536;6.042;2023-07-02T00:03:19;100677.17;;;16.98;89.36
48404;BME280;34202;52.536;6.042;2023-07-02T00:08:22;100673.35;;;16.96;89.15
48404;BME280;34202;52.536;6.042;2023-07-02T00:13:22;100671.45;;;16.95;88.91
48404;BME280;34202;52.536;6.042;2023-07-02T00:18:22;100669.22;;;16.92;88.57
48404;BME280;34202;52.536;6.042;2023-07-02T00:23:23;100668.59;;;16.89;88.08
48404;BME280;34202;52.536;6.042;2023-07-02T00:28:23;100666.55;;;16.85;86.98
48404;BME280;34202;52.536;6.042;2023-07-02T00:33:24;100668.60;;;16.79;85.65
48404;BME280;34202;52.536;6.042;2023-07-02T00:38:24;100670.61;;;16.75;84.63
48404;BME280;34202;52.536;6.042;2023-07-02T00:43:25;100673.84;;;16.72;83.94
48404;BME280;34202;52.536;6.042;2023-07-02T00:48:25;100674.25;;;16.69;83.38
48404;BME280;34202;52.536;6.042;2023-07-02T00:53:25;100672.04;;;16.66;82.64
48404;BME280;34202;52.536;6.042;2023-07-02T00:58:26;100665.05;;;16.64;82.25
48404;BME280;34202;52.536;6.042;2023-07-02T01:03:26;100666.33;;;16.62;81.85
48404;BME280;34202;52.536;6.042;2023-07-02T01:08:27;100665.33;;;16.59;81.30
48404;BME280;34202;52.536;6.042;2023-07-02T01:13:27;100667.92;;;16.53;80.66
48404;BME280;34202;52.536;6.042;2023-07-02T01:18:28;100673.13;;;16.47;80.18
48404;BME280;34202;52.536;6.042;2023-07-02T01:23:30;100677.83;;;16.40;80.19
48404;BME280;34202;52.536;6.042;2023-07-02T01:28:36;100678.98;;;16.36;80.03
48404;BME280;34202;52.536;6.042;2023-07-02T01:33:40;100675.73;;;16.31;80.11
48404;BME280;34202;52.536;6.042;2023-07-02T01:38:40;100680.71;;;16.28;80.32
48404;BME280;34202;52.536;6.042;2023-07-02T01:43:41;100689.04;;;16.23;80.34
48404;BME280;34202;52.536;6.042;2023-07-02T01:48:42;100693.56;;;16.17;80.32
48404;BME280;34202;52.536;6.042;2023-07-02T01:53:42;100694.90;;;16.11;80.44
48404;BME280;34202;52.536;6.042;2023-07-02T01:58:42;100692.73;;;16.04;80.51
48404;BME280;34202;52.536;6.042;2023-07-02T02:03:43;100693.42;;;15.95;80.38
48404;BME280;34202;52.536;6.042;2023-07-02T02:08:43;100697.08;;;15.87;80.37
48404;BME280;34202;52.536;6.042;2023-07-02T02:13:43;100696.15;;;15.80;80.41
48404;BME280;34202;52.536;6.042;2023-07-02T02:18:44;100696.06;;;15.74;80.45
48404;BME280;34202;52.536;6.042;2023-07-02T02:23:44;100693.17;;;15.67;80.27
48404;BME280;34202;52.536;6.042;2023-07-02T02:28:45;100697.33;;;15.60;80.16
48404;BME280;34202;52.536;6.042;2023-07-02T02:33:45;100705.50;;;15.54;80.16
48404;BME280;34202;52.536;6.042;2023-07-02T02:38:46;100706.13;;;15.48;80.25
48404;BME280;34202;52.536;6.042;2023-07-02T02:43:46;100707.63;;;15.41;80.30
48404;BME280;34202;52.536;6.042;2023-07-02T02:48:47;100709.14;;;15.33;80.39
48404;BME280;34202;52.536;6.042;2023-07-02T02:53:47;100715.04;;;15.25;80.35
48404;BME280;34202;52.536;6.042;2023-07-02T02:58:47;100715.34;;;15.18;80.54
48404;BME280;34202;52.536;6.042;2023-07-02T03:03:48;100719.47;;;15.10;80.69
48404;BME280;34202;52.536;6.042;2023-07-02T03:08:48;100719.76;;;15.02;80.71
48404;BME280;34202;52.536;6.042;2023-07-02T03:13:48;100723.02;;;14.93;80.63
48404;BME280;34202;52.536;6.042;2023-07-02T03:18:49;100725.95;;;14.83;80.63
48404;BME280;34202;52.536;6.042;2023-07-02T03:23:49;100728.17;;;14.74;80.82
48404;BME280;34202;52.536;6.042;2023-07-02T03:28:50;100729.87;;;14.64;80.86
48404;BME280;34202;52.536;6.042;2023-07-02T03:33:50;100729.95;;;14.55;81.15
48404;BME280;34202;52.536;6.042;2023-07-02T03:38:50;100731.10;;;14.45;81.37
48404;BME280;34202;52.536;6.042;2023-07-02T03:43:51;100733.98;;;14.37;81.81
48404;BME280;34202;52.536;6.042;2023-07-02T03:48:51;100731.77;;;14.31;82.34
48404;BME280;34202;52.536;6.042;2023-07-02T03:53:51;100731.29;;;14.27;82.71
48404;BME280;34202;52.536;6.042;2023-07-02T03:58:52;100739.38;;;14.23;82.91
48404;BME280;34202;52.536;6.042;2023-07-02T04:03:55;100744.12;;;14.21;83.22
48404;BME280;34202;52.536;6.042;2023-07-02T04:08:55;100753.23;;;14.20;83.57
48404;BME280;34202;52.536;6.042;2023-07-02T04:13:56;100753.60;;;14.19;83.80
48404;BME280;34202;52.536;6.042;2023-07-02T04:18:56;100761.15;;;14.16;84.08
48404;BME280;34202;52.536;6.042;2023-07-02T04:23:56;100761.70;;;14.14;84.41
48404;BME280;34202;52.536;6.042;2023-07-02T04:28:57;100764.34;;;14.11;84.66
48404;BME280;34202;52.536;6.042;2023-07-02T04:33:57;100772.05;;;14.10;84.87
48404;BME280;34202;52.536;6.042;2023-07-02T04:38:58;100777.99;;;14.11;85.36
48404;BME280;34202;52.536;6.042;2023-07-02T04:43:58;100776.25;;;14.10;85.39
48404;BME280;34202;52.536;6.042;2023-07-02T04:48:59;100778.70;;;14.11;85.69
48404;BME280;34202;52.536;6.042;2023-07-02T04:53:59;100783.93;;;14.14;86.07
48404;BME280;34202;52.536;6.042;2023-07-02T04:58:59;100783.54;;;14.18;86.40
48404;BME280;34202;52.536;6.042;2023-07-02T05:04:00;100793.64;;;14.22;86.79
48404;BME280;34202;52.536;6.042;2023-07-02T05:09:00;100792.04;;;14.27;87.06
48404;BME280;34202;52.536;6.042;2023-07-02T05:14:00;100791.28;;;14.32;87.42
48404;BME280;34202;52.536;6.042;2023-07-02T05:19:01;100790.35;;;14.38;87.73
48404;BME280;34202;52.536;6.042;2023-07-02T05:25:36;100792.16;;;14.49;87.90
48404;BME280;34202;52.536;6.042;2023-07-02T05:30:37;100792.13;;;14.53;88.18
48404;BME280;34202;52.536;6.042;2023-07-02T05:35:37;100789.29;;;14.58;88.36
48404;BME280;34202;52.536;6.042;2023-07-02T05:40:37;100791.34;;;14.65;88.80
48404;BME280;34202;52.536;6.042;2023-07-02T05:45:38;100794.89;;;14.76;89.33
48404;BME280;34202;52.536;6.042;2023-07-02T05:50:38;100801.39;;;14.89;89.79
48404;BME280;34202;52.536;6.042;2023-07-02T05:55:38;100805.23;;;15.06;89.99
48404;BME280;34202;52.536;6.042;2023-07-02T06:00:39;100808.70;;;15.23;90.33
48404;BME280;34202;52.536;6.042;2023-07-02T06:05:41;100807.56;;;15.42;90.44
48404;BME280;34202;52.536;6.042;2023-07-02T06:10:42;100813.78;;;15.61;90.39
48404;BME280;34202;52.536;6.042;2023-07-02T06:15:43;100823.23;;;15.76;89.93
48404;BME280;34202;52.536;6.042;2023-07-02T06:20:45;100820.57;;;15.90;89.30
48404;BME280;34202;52.536;6.042;2023-07-02T06:25:46;100826.68;;;16.04;88.63
48404;BME280;34202;52.536;6.042;2023-07-02T06:30:46;100831.53;;;16.19;87.97
48404;BME280;34202;52.536;6.042;2023-07-02T06:35:46;100832.93;;;16.30;87.01
48404;BME280;34202;52.536;6.042;2023-07-02T06:40:47;100840.14;;;16.39;86.44
48404;BME280;34202;52.536;6.042;2023-07-02T06:45:47;100837.16;;;16.48;85.83
48404;BME280;34202;52.536;6.042;2023-07-02T06:50:48;100843.02;;;16.56;85.30
48404;BME280;34202;52.536;6.042;2023-07-02T06:55:48;100851.96;;;16.65;84.60
48404;BME280;34202;52.536;6.042;2023-07-02T07:00:48;100863.90;;;16.77;84.35
48404;BME280;34202;52.536;6.042;2023-07-02T07:05:49;100863.80;;;16.93;84.34
48404;BME280;34202;52.536;6.042;2023-07-02T07:10:50;100877.25;;;17.15;84.02
48404;BME280;34202;52.536;6.042;2023-07-02T07:15:50;100877.55;;;17.27;82.66
48404;BME280;34202;52.536;6.042;2023-07-02T07:20:50;100887.77;;;17.34;82.34
48404;BME280;34202;52.536;6.042;2023-07-02T07:25:52;100896.15;;;17.46;81.59
48404;BME280;34202;52.536;6.042;2023-07-02T07:30:53;100902.23;;;17.51;80.54
48404;BME280;34202;52.536;6.042;2023-07-02T07:35:53;100902.74;;;17.50;79.71
48404;BME280;34202;52.536;6.042;2023-07-02T07:40:53;100906.80;;;17.58;79.61
48404;BME280;34202;52.536;6.042;2023-07-02T07:45:54;100913.39;;;17.63;78.46
48404;BME280;34202;52.536;6.042;2023-07-02T07:50:55;100919.36;;;17.64;77.92
48404;BME280;34202;52.536;6.042;2023-07-02T07:55:55;100923.31;;;17.76;78.67
48404;BME280;34202;52.536;6.042;2023-07-02T08:00:55;100924.98;;;17.98;78.27
48404;BME280;34202;52.536;6.042;2023-07-02T08:05:56;100923.41;;;18.20;77.82
48404;BME280;34202;52.536;6.042;2023-07-02T08:10:56;100924.17;;;18.47;77.27
48404;BME280;34202;52.536;6.042;2023-07-02T08:15:56;100925.88;;;18.56;75.22
48404;BME280;34202;52.536;6.042;2023-07-02T08:20:57;100931.97;;;18.67;74.62
48404;BME280;34202;52.536;6.042;2023-07-02T08:25:57;100929.27;;;18.75;73.80
48404;BME280;34202;52.536;6.042;2023-07-02T08:30:57;100928.95;;;18.83;73.34
48404;BME280;34202;52.536;6.042;2023-07-02T08:35:58;100935.29;;;18.90;72.73
48404;BME280;34202;52.536;6.042;2023-07-02T08:41:01;100936.42;;;19.14;71.92
48404;BME280;34202;52.536;6.042;2023-07-02T08:46:02;100940.19;;;19.31;70.87
48404;BME280;34202;52.536;6.042;2023-07-02T08:51:03;100949.36;;;19.37;69.95
48404;BME280;34202;52.536;6.042;2023-07-02T08:56:04;100957.16;;;19.42;69.10
48404;BME280;34202;52.536;6.042;2023-07-02T09:06:08;100957.49;;;19.74;68.22
48404;BME280;34202;52.536;6.042;2023-07-02T09:11:15;100959.61;;;19.98;67.44
48404;BME280;34202;52.536;6.042;2023-07-02T09:16:31;100973.92;;;20.38;67.07
48404;BME280;34202;52.536;6.042;2023-07-02T09:21:44;100982.16;;;20.63;65.76
48404;BME280;34202;52.536;6.042;2023-07-02T09:26:50;100986.31;;;20.66;64.32
48404;BME280;34202;52.536;6.042;2023-07-02T09:31:51;100973.20;;;20.77;64.40
48404;BME280;34202;52.536;6.042;2023-07-02T09:36:51;100974.86;;;21.06;64.09
48404;BME280;34202;52.536;6.042;2023-07-02T09:41:52;100975.21;;;21.32;62.60
48404;BME280;34202;52.536;6.042;2023-07-02T09:47:01;100983.05;;;21.35;61.00
48404;BME280;34202;52.536;6.042;2023-07-02T09:52:07;100989.98;;;21.24;60.38
48404;BME280;34202;52.536;6.042;2023-07-02T09:57:08;100994.27;;;21.13;60.07
48404;BME280;34202;52.536;6.042;2023-07-02T10:02:09;100995.16;;;21.02;60.27
48404;BME280;34202;52.536;6.042;2023-07-02T10:07:11;100996.98;;;21.01;60.49
48404;BME280;34202;52.536;6.042;2023-07-02T10:12:19;100998.41;;;21.06;60.51
48404;BME280;34202;52.536;6.042;2023-07-02T10:17:31;101006.11;;;21.14;60.33
48404;BME280;34202;52.536;6.042;2023-07-02T10:22:46;101010.86;;;21.15;59.85
48404;BME280;34202;52.536;6.042;2023-07-02T10:27:54;101017.46;;;21.03;59.42
48404;BME280;34202;52.536;6.042;2023-07-02T10:32:55;101019.30;;;21.00;59.69
48404;BME280;34202;52.536;6.042;2023-07-02T10:37:55;101021.48;;;21.09;59.72
48404;BME280;34202;52.536;6.042;2023-07-02T10:42:56;101014.42;;;21.24;59.87
48404;BME280;34202;52.536;6.042;2023-07-02T10:47:56;101020.87;;;21.42;58.95
48404;BME280;34202;52.536;6.042;2023-07-02T10:52:56;101008.69;;;21.52;58.10
48404;BME280;34202;52.536;6.042;2023-07-02T10:58:05;101019.09;;;21.68;58.18
48404;BME280;34202;52.536;6.042;2023-07-02T11:03:16;101025.45;;;21.78;57.55
48404;BME280;34202;52.536;6.042;2023-07-02T11:08:17;101032.59;;;21.76;55.65
48404;BME280;34202;52.536;6.042;2023-07-02T11:13:19;101035.90;;;21.73;55.30
48404;BME280;34202;52.536;6.042;2023-07-02T11:18:19;101037.48;;;21.88;56.04
48404;BME280;34202;52.536;6.042;2023-07-02T11:23:23;101037.34;;;21.82;54.44
48404;BME280;34202;52.536;6.042;2023-07-02T11:28:24;101042.27;;;21.73;54.43
48404;BME280;34202;52.536;6.042;2023-07-02T11:33:38;101045.41;;;21.70;53.82
48404;BME280;34202;52.536;6.042;2023-07-02T11:38:39;101044.80;;;21.52;52.30
48404;BME280;34202;52.536;6.042;2023-07-02T11:43:39;101045.39;;;21.61;52.83
48404;BME280;34202;52.536;6.042;2023-07-02T11:48:40;101053.90;;;21.70;51.97
48404;BME280;34202;52.536;6.042;2023-07-02T11:53:40;101062.00;;;21.71;51.95
48404;BME280;34202;52.536;6.042;2023-07-02T11:58:41;101061.06;;;21.78;51.88
48404;BME280;34202;52.536;6.042;2023-07-02T12:03:42;101061.23;;;21.97;52.29
48404;BME280;34202;52.536;6.042;2023-07-02T12:08:42;101059.67;;;22.15;51.31
48404;BME280;34202;52.536;6.042;2023-07-02T12:13:42;101064.65;;;22.52;50.49
48404;BME280;34202;52.536;6.042;2023-07-02T12:18:43;101073.58;;;22.86;48.60
48404;BME280;34202;52.536;6.042;2023-07-02T12:23:43;101075.86;;;23.05;47.73
48404;BME280;34202;52.536;6.042;2023-07-02T12:28:44;101084.27;;;22.98;46.83
48404;BME280;34202;52.536;6.042;2023-07-02T12:33:44;101079.00;;;22.96;46.85
48404;BME280;34202;52.536;6.042;2023-07-02T12:38:44;101091.87;;;22.99;46.85
48404;BME280;34202;52.536;6.042;2023-07-02T12:43:45;101094.83;;;23.05;47.31
48404;BME280;34202;52.536;6.042;2023-07-02T12:48:45;101095.70;;;22.96;46.71
48404;BME280;34202;52.536;6.042;2023-07-02T12:53:46;101093.77;;;23.01;47.10
48404;BME280;34202;52.536;6.042;2023-07-02T12:58:46;101101.98;;;22.86;46.73
48404;BME280;34202;52.536;6.042;2023-07-02T13:03:47;101104.42;;;22.78;46.45
48404;BME280;34202;52.536;6.042;2023-07-02T13:08:47;101109.34;;;22.66;45.07
48404;BME280;34202;52.536;6.042;2023-07-02T13:13:48;101107.86;;;22.45;44.32
48404;BME280;34202;52.536;6.042;2023-07-02T13:18:48;101109.59;;;22.46;44.51
48404;BME280;34202;52.536;6.042;2023-07-02T13:23:48;101116.02;;;22.71;45.06
48404;BME280;34202;52.536;6.042;2023-07-02T13:28:49;101115.91;;;22.93;44.88
48404;BME280;34202;52.536;6.042;2023-07-02T13:33:49;101116.33;;;23.18;44.72
48404;BME280;34202;52.536;6.042;2023-07-02T13:38:50;101121.38;;;23.37;44.42
48404;BME280;34202;52.536;6.042;2023-07-02T13:43:50;101122.04;;;23.51;43.66
48404;BME280;34202;52.536;6.042;2023-07-02T13:48:51;101124.63;;;23.61;43.27
48404;BME280;34202;52.536;6.042;2023-07-02T13:53:51;101119.33;;;23.56;42.15
48404;BME280;34202;52.536;6.042;2023-07-02T14:03:55;101124.16;;;23.55;42.09
48404;BME280;34202;52.536;6.042;2023-07-02T14:08:55;101124.70;;;23.64;42.29
48404;BME280;34202;52.536;6.042;2023-07-02T14:13:56;101123.31;;;23.71;41.86
48404;BME280;34202;52.536;6.042;2023-07-02T14:18:56;101125.50;;;23.74;41.27
48404;BME280;34202;52.536;6.042;2023-07-02T14:23:58;101127.84;;;23.78;41.19
48404;BME280;34202;52.536;6.042;2023-07-02T14:28:58;101131.76;;;23.77;40.82
48404;BME280;34202;52.536;6.042;2023-07-02T14:33:59;101125.20;;;23.82;40.67
48404;BME280;34202;52.536;6.042;2023-07-02T14:38:59;101127.86;;;23.77;40.43
48404;BME280;34202;52.536;6.042;2023-07-02T14:44:00;101127.43;;;23.75;40.26
48404;BME280;34202;52.536;6.042;2023-07-02T14:49:00;101128.23;;;23.68;40.73
48404;BME280;34202;52.536;6.042;2023-07-02T14:54:01;101122.66;;;23.65;40.69
48404;BME280;34202;52.536;6.042;2023-07-02T14:59:04;101120.48;;;23.67;40.24
48404;BME280;34202;52.536;6.042;2023-07-02T15:04:04;101123.16;;;23.70;40.27
48404;BME280;34202;52.536;6.042;2023-07-02T15:09:04;101123.27;;;23.76;40.25
48404;BME280;34202;52.536;6.042;2023-07-02T15:14:05;101122.80;;;23.70;40.55
48404;BME280;34202;52.536;6.042;2023-07-02T15:19:05;101118.30;;;23.68;40.39
48404;BME280;34202;52.536;6.042;2023-07-02T15:24:06;101117.36;;;23.61;40.06
48404;BME280;34202;52.536;6.042;2023-07-02T15:29:06;101119.48;;;23.48;39.98
48404;BME280;34202;52.536;6.042;2023-07-02T15:34:06;101114.16;;;23.44;40.41
48404;BME280;34202;52.536;6.042;2023-07-02T15:39:07;101107.91;;;23.41;40.65
48404;BME280;34202;52.536;6.042;2023-07-02T15:44:08;101111.48;;;23.41;40.76
48404;BME280;34202;52.536;6.042;2023-07-02T15:49:08;101113.33;;;23.34;40.61
48404;BME280;34202;52.536;6.042;2023-07-02T15:54:09;101112.98;;;23.22;40.22
48404;BME280;34202;52.536;6.042;2023-07-02T15:59:10;101118.29;;;23.22;40.59
48404;BME280;34202;52.536;6.042;2023-07-02T16:04:10;101120.94;;;23.18;40.05
48404;BME280;34202;52.536;6.042;2023-07-02T16:09:10;101122.30;;;23.06;39.77
48404;BME280;34202;52.536;6.042;2023-07-02T16:14:14;101118.89;;;22.89;39.93
48404;BME280;34202;52.536;6.042;2023-07-02T16:19:15;101114.61;;;22.85;40.27
48404;BME280;34202;52.536;6.042;2023-07-02T16:24:19;101122.48;;;22.74;40.05
48404;BME280;34202;52.536;6.042;2023-07-02T16:29:25;101123.83;;;22.63;40.32
48404;BME280;34202;52.536;6.042;2023-07-02T16:34:28;101122.20;;;22.59;40.92
48404;BME280;34202;52.536;6.042;2023-07-02T16:39:31;101118.58;;;22.61;41.14
48404;BME280;34202;52.536;6.042;2023-07-02T16:44:32;101124.06;;;22.43;40.59
48404;BME280;34202;52.536;6.042;2023-07-02T16:49:35;101116.31;;;22.28;40.61
48404;BME280;34202;52.536;6.042;2023-07-02T16:54:38;101117.07;;;22.11;39.83
48404;BME280;34202;52.536;6.042;2023-07-02T16:59:38;101113.41;;;21.90;39.20
48404;BME280;34202;52.536;6.042;2023-07-02T17:04:39;101113.17;;;21.77;39.40
48404;BME280;34202;52.536;6.042;2023-07-02T17:09:40;101111.33;;;21.74;40.34
48404;BME280;34202;52.536;6.042;2023-07-02T17:14:43;101108.17;;;21.73;40.68
48404;BME280;34202;52.536;6.042;2023-07-02T17:19:47;101105.02;;;21.72;40.96
48404;BME280;34202;52.536;6.042;2023-07-02T17:24:49;101101.59;;;21.69;41.20
48404;BME280;34202;52.536;6.042;2023-07-02T17:29:52;101094.41;;;21.57;41.16
48404;BME280;34202;52.536;6.042;2023-07-02T17:34:53;101092.95;;;21.47;41.47
48404;BME280;34202;52.536;6.042;2023-07-02T17:39:53;101088.86;;;21.37;42.01
48404;BME280;34202;52.536;6.042;2023-07-02T17:44:54;101080.95;;;21.30;42.61
48404;BME280;34202;52.536;6.042;2023-07-02T17:49:58;101074.89;;;21.26;43.02
48404;BME280;34202;52.536;6.042;2023-07-02T17:54:59;101071.98;;;21.23;43.23
48404;BME280;34202;52.536;6.042;2023-07-02T18:00:00;101067.24;;;21.16;43.37
48404;BME280;34202;52.536;6.042;2023-07-02T18:05:01;101065.02;;;21.10;43.81
48404;BME280;34202;52.536;6.042;2023-07-02T18:10:01;101063.90;;;21.05;44.24
48404;BME280;34202;52.536;6.042;2023-07-02T18:15:02;101064.22;;;21.01;44.58
48404;BME280;34202;52.536;6.042;2023-07-02T18:20:02;101055.73;;;20.95;44.79
48404;BME280;34202;52.536;6.042;2023-07-02T18:25:04;101048.77;;;20.87;45.03
48404;BME280;34202;52.536;6.042;2023-07-02T18:30:05;101045.21;;;20.76;44.69
48404;BME280;34202;52.536;6.042;2023-07-02T18:35:06;101048.16;;;20.67;45.19
48404;BME280;34202;52.536;6.042;2023-07-02T18:40:08;101047.00;;;20.59;45.24
48404;BME280;34202;52.536;6.042;2023-07-02T18:45:09;101047.64;;;20.49;45.63
48404;BME280;34202;52.536;6.042;2023-07-02T18:50:11;101045.65;;;20.39;45.66
48404;BME280;34202;52.536;6.042;2023-07-02T18:55:15;101038.91;;;20.28;45.99
48404;BME280;34202;52.536;6.042;2023-07-02T19:00:15;101038.19;;;20.17;46.15
48404;BME280;34202;52.536;6.042;2023-07-02T19:05:17;101044.59;;;20.10;46.65
48404;BME280;34202;52.536;6.042;2023-07-02T19:10:18;101041.43;;;20.03;46.87
48404;BME280;34202;52.536;6.042;2023-07-02T19:15:18;101036.59;;;19.93;47.09
48404;BME280;34202;52.536;6.042;2023-07-02T19:20:18;101038.17;;;19.81;47.55
48404;BME280;34202;52.536;6.042;2023-07-02T19:25:21;101032.77;;;19.72;48.05
48404;BME280;34202;52.536;6.042;2023-07-02T19:30:22;101025.91;;;19.64;48.41
48404;BME280;34202;52.536;6.042;2023-07-02T19:35:22;101018.63;;;19.59;48.87
48404;BME280;34202;52.536;6.042;2023-07-02T19:40:23;101020.33;;;19.56;49.15
48404;BME280;34202;52.536;6.042;2023-07-02T19:45:26;101020.16;;;19.48;49.52
48404;BME280;34202;52.536;6.042;2023-07-02T19:50:27;101024.40;;;19.42;49.87
48404;BME280;34202;52.536;6.042;2023-07-02T19:55:28;101027.99;;;19.33;49.98
48404;BME280;34202;52.536;6.042;2023-07-02T20:00:28;101037.92;;;19.25;50.19
48404;BME280;34202;52.536;6.042;2023-07-02T20:05:28;101037.75;;;19.18;50.57
48404;BME280;34202;52.536;6.042;2023-07-02T20:10:29;101042.50;;;19.11;51.01
48404;BME280;34202;52.536;6.042;2023-07-02T20:15:29;101036.40;;;19.07;51.35
48404;BME280;34202;52.536;6.042;2023-07-02T20:20:30;101037.77;;;19.03;51.73
48404;BME280;34202;52.536;6.042;2023-07-02T20:25:31;101037.73;;;18.97;51.91
48404;BME280;34202;52.536;6.042;2023-07-02T20:30:31;101033.78;;;18.93;52.32
48404;BME280;34202;52.536;6.042;2023-07-02T20:35:31;101035.16;;;18.88;52.68
48404;BME280;34202;52.536;6.042;2023-07-02T20:40:32;101032.67;;;18.80;52.94
48404;BME280;34202;52.536;6.042;2023-07-02T20:45:32;101028.10;;;18.71;53.22
48404;BME280;34202;52.536;6.042;2023-07-02T20:50:35;101026.15;;;18.65;53.68
48404;BME280;34202;52.536;6.042;2023-07-02T20:55:36;101031.54;;;18.61;53.97
48404;BME280;34202;52.536;6.042;2023-07-02T21:00:36;101027.91;;;18.57;54.28
48404;BME280;34202;52.536;6.042;2023-07-02T21:05:36;101027.83;;;18.53;54.47
48404;BME280;34202;52.536;6.042;2023-07-02T21:10:39;101025.11;;;18.49;54.81
48404;BME280;34202;52.536;6.042;2023-07-02T21:15:40;101028.42;;;18.43;55.18
48404;BME280;34202;52.536;6.042;2023-07-02T21:20:41;101025.92;;;18.36;55.56
48404;BME280;34202;52.536;6.042;2023-07-02T21:25:42;101024.14;;;18.29;56.03
48404;BME280;34202;52.536;6.042;2023-07-02T21:30:46;101019.32;;;18.24;56.40
48404;BME280;34202;52.536;6.042;2023-07-02T21:35:47;101017.25;;;18.22;56.87
48404;BME280;34202;52.536;6.042;2023-07-02T21:40:47;101014.34;;;18.18;57.32
48404;BME280;34202;52.536;6.042;2023-07-02T21:45:54;101013.39;;;18.13;57.80
48404;BME280;34202;52.536;6.042;2023-07-02T21:50:55;101008.92;;;18.08;58.30
48404;BME280;34202;52.536;6.042;2023-07-02T21:55:56;101010.61;;;18.04;58.72
48404;BME280;34202;52.536;6.042;2023-07-02T22:00:56;101007.88;;;18.00;59.18
48404;BME280;34202;52.536;6.042;2023-07-02T22:05:58;101009.18;;;17.96;59.71
48404;BME280;34202;52.536;6.042;2023-07-02T22:10:58;101006.80;;;17.92;60.05
48404;BME280;34202;52.536;6.042;2023-07-02T22:15:58;101002.65;;;17.88;60.35
48404;BME280;34202;52.536;6.042;2023-07-02T22:20:59;101000.41;;;17.86;60.69
48404;BME280;34202;52.536;6.042;2023-07-02T22:25:59;100999.58;;;17.82;61.26
48404;BME280;34202;52.536;6.042;2023-07-02T22:31:00;100999.65;;;17.79;61.59
48404;BME280;34202;52.536;6.042;2023-07-02T22:36:02;100994.94;;;17.77;61.82
48404;BME280;34202;52.536;6.042;2023-07-02T22:41:02;100990.94;;;17.75;62.43
48404;BME280;34202;52.536;6.042;2023-07-02T22:46:03;100986.23;;;17.72;62.77
48404;BME280;34202;52.536;6.042;2023-07-02T22:51:03;100983.14;;;17.69;63.29
48404;BME280;34202;52.536;6.042;2023-07-02T22:56:14;100979.33;;;17.65;63.72
48404;BME280;34202;52.536;6.042;2023-07-02T23:01:15;100973.55;;;17.64;64.28
48404;BME280;34202;52.536;6.042;2023-07-02T23:06:16;100966.02;;;17.63;64.77
48404;BME280;34202;52.536;6.042;2023-07-02T23:11:16;100964.79;;;17.63;65.27
48404;BME280;34202;52.536;6.042;2023-07-02T23:16:16;100960.05;;;17.62;65.92
48404;BME280;34202;52.536;6.042;2023-07-02T23:21:17;100956.21;;;17.61;66.37
48404;BME280;34202;52.536;6.042;2023-07-02T23:26:17;100952.35;;;17.59;67.06
48404;BME280;34202;52.536;6.042;2023-07-02T23:31:28;100939.06;;;17.56;67.56
48404;BME280;34202;52.536;6.042;2023-07-02T23:36:28;100932.73;;;17.55;68.09
48404;BME280;34202;52.536;6.042;2023-07-02T23:41:29;100926.97;;;17.53;68.55
48404;BME280;34202;52.536;6.042;2023-07-02T23:46:29;100922.79;;;17.51;68.95
48404;BME280;34202;52.536;6.042;2023-07-02T23:51:30;100921.61;;;17.48;69.30
48404;BME280;34202;52.536;6.042;2023-07-02T23:56:30;100921.18;;;17.44;69.45
